sensor_id;sensor_type;location;lat;lon;timestamp;P1;durP1;ratioP1;P2;durP2;ratioP2
52744;SDS011;38637;49.984;20.426;2023-02-24T00:01:36;55.33;;;37.13;;
52744;SDS011;38637;49.984;20.426;2023-02-24T00:04:07;56.42;;;32.33;;
52744;SDS011;38637;49.984;20.426;2023-02-24T00:06:38;48.47;;;31.75;;
52744;SDS011;38637;49.984;20.426;2023-02-24T00:09:09;39.35;;;25.98;;
52744;SDS011;38637;49.984;20.426;2023-02-24T00:11:40;25.73;;;17.83;;
52744;SDS011;38637;49.984;20.426;2023-02-24T00:14:09;20.98;;;14.38;;
52744;SDS011;38637;49.984;20.426;2023-02-24T00:16:39;15.40;;;12.15;;
52744;SDS011;38637;49.984;20.426;2023-02-24T00:19:05;17.57;;;11.77;;
52744;SDS011;38637;49.984;20.426;2023-02-24T00:21:34;18.45;;;12.40;;
52744;SDS011;38637;49.984;20.426;2023-02-24T00:23:59;15.77;;;11.47;;
52744;SDS011;38637;49.984;20.426;2023-02-24T00:26:25;12.85;;;10.77;;
52744;SDS011;38637;49.984;20.426;2023-02-24T00:28:53;14.57;;;11.07;;
52744;SDS011;38637;49.984;20.426;2023-02-24T00:31:19;21.03;;;14.90;;
52744;SDS011;38637;49.984;20.426;2023-02-24T00:33:47;35.90;;;18.70;;
52744;SDS011;38637;49.984;20.426;2023-02-24T00:36:14;30.00;;;20.77;;
52744;SDS011;38637;49.984;20.426;2023-02-24T00:38:57;26.58;;;19.02;;
52744;SDS011;38637;49.984;20.426;2023-02-24T00:41:30;32.70;;;21.38;;
52744;SDS011;38637;49.984;20.426;2023-02-24T00:43:58;29.77;;;21.08;;
52744;SDS011;38637;49.984;20.426;2023-02-24T00:46:30;30.48;;;22.42;;
52744;SDS011;38637;49.984;20.426;2023-02-24T00:48:59;34.10;;;24.23;;
52744;SDS011;38637;49.984;20.426;2023-02-24T00:51:29;31.52;;;21.30;;
52744;SDS011;38637;49.984;20.426;2023-02-24T00:53:58;29.27;;;20.88;;
52744;SDS011;38637;49.984;20.426;2023-02-24T00:56:25;30.90;;;18.87;;
52744;SDS011;38637;49.984;20.426;2023-02-24T00:58:52;26.25;;;19.38;;
52744;SDS011;38637;49.984;20.426;2023-02-24T01:01:20;38.92;;;24.23;;
52744;SDS011;38637;49.984;20.426;2023-02-24T01:03:47;32.08;;;21.35;;
52744;SDS011;38637;49.984;20.426;2023-02-24T01:06:13;35.80;;;22.10;;
52744;SDS011;38637;49.984;20.426;2023-02-24T01:08:41;23.38;;;18.75;;
52744;SDS011;38637;49.984;20.426;2023-02-24T01:11:11;29.38;;;20.80;;
52744;SDS011;38637;49.984;20.426;2023-02-24T01:16:24;23.92;;;17.70;;
52744;SDS011;38637;49.984;20.426;2023-02-24T01:18:50;25.57;;;17.50;;
52744;SDS011;38637;49.984;20.426;2023-02-24T01:21:16;26.87;;;18.43;;
52744;SDS011;38637;49.984;20.426;2023-02-24T01:23:49;24.60;;;17.52;;
52744;SDS011;38637;49.984;20.426;2023-02-24T01:26:18;25.20;;;18.13;;
52744;SDS011;38637;49.984;20.426;2023-02-24T01:28:44;23.55;;;16.23;;
52744;SDS011;38637;49.984;20.426;2023-02-24T01:31:13;22.77;;;16.13;;
52744;SDS011;38637;49.984;20.426;2023-02-24T01:33:44;23.92;;;16.48;;
52744;SDS011;38637;49.984;20.426;2023-02-24T01:36:15;22.05;;;16.30;;
52744;SDS011;38637;49.984;20.426;2023-02-24T01:38:42;23.65;;;15.73;;
52744;SDS011;38637;49.984;20.426;2023-02-24T01:41:09;19.95;;;15.10;;
52744;SDS011;38637;49.984;20.426;2023-02-24T01:46:23;21.92;;;16.40;;
52744;SDS011;38637;49.984;20.426;2023-02-24T01:48:50;22.48;;;16.63;;
52744;SDS011;38637;49.984;20.426;2023-02-24T01:51:18;23.17;;;16.30;;
52744;SDS011;38637;49.984;20.426;2023-02-24T01:53:43;22.93;;;15.53;;
52744;SDS011;38637;49.984;20.426;2023-02-24T01:56:09;20.87;;;15.93;;
52744;SDS011;38637;49.984;20.426;2023-02-24T01:58:38;22.70;;;15.25;;
52744;SDS011;38637;49.984;20.426;2023-02-24T02:03:33;24.85;;;17.02;;
52744;SDS011;38637;49.984;20.426;2023-02-24T02:06:07;24.15;;;18.27;;
52744;SDS011;38637;49.984;20.426;2023-02-24T02:08:35;21.65;;;16.30;;
52744;SDS011;38637;49.984;20.426;2023-02-24T02:11:06;27.67;;;17.15;;
52744;SDS011;38637;49.984;20.426;2023-02-24T02:13:33;22.58;;;17.20;;
52744;SDS011;38637;49.984;20.426;2023-02-24T02:18:47;18.83;;;14.85;;
52744;SDS011;38637;49.984;20.426;2023-02-24T02:21:20;22.52;;;14.80;;
52744;SDS011;38637;49.984;20.426;2023-02-24T02:24:21;36.13;;;18.40;;
52744;SDS011;38637;49.984;20.426;2023-02-24T02:30:05;28.63;;;16.92;;
52744;SDS011;38637;49.984;20.426;2023-02-24T02:37:59;23.13;;;13.38;;
52744;SDS011;38637;49.984;20.426;2023-02-24T02:40:41;13.68;;;11.25;;
52744;SDS011;38637;49.984;20.426;2023-02-24T02:43:17;29.98;;;16.52;;
52744;SDS011;38637;49.984;20.426;2023-02-24T02:51:05;26.38;;;14.93;;
52744;SDS011;38637;49.984;20.426;2023-02-24T02:56:08;22.23;;;13.52;;
52744;SDS011;38637;49.984;20.426;2023-02-24T02:58:54;14.65;;;10.60;;
52744;SDS011;38637;49.984;20.426;2023-02-24T03:01:23;13.48;;;10.13;;
52744;SDS011;38637;49.984;20.426;2023-02-24T03:03:53;12.35;;;9.82;;
52744;SDS011;38637;49.984;20.426;2023-02-24T03:06:23;11.38;;;8.90;;
52744;SDS011;38637;49.984;20.426;2023-02-24T03:09:01;11.73;;;8.98;;
52744;SDS011;38637;49.984;20.426;2023-02-24T03:11:39;13.88;;;8.32;;
52744;SDS011;38637;49.984;20.426;2023-02-24T03:14:06;11.77;;;8.48;;
52744;SDS011;38637;49.984;20.426;2023-02-24T03:16:36;16.95;;;11.43;;
52744;SDS011;38637;49.984;20.426;2023-02-24T03:19:04;25.77;;;14.20;;
52744;SDS011;38637;49.984;20.426;2023-02-24T03:21:33;24.50;;;12.13;;
52744;SDS011;38637;49.984;20.426;2023-02-24T03:24:10;26.50;;;14.57;;
52744;SDS011;38637;49.984;20.426;2023-02-24T03:26:45;17.75;;;12.85;;
52744;SDS011;38637;49.984;20.426;2023-02-24T03:29:26;26.13;;;14.13;;
52744;SDS011;38637;49.984;20.426;2023-02-24T03:32:08;25.27;;;14.18;;
52744;SDS011;38637;49.984;20.426;2023-02-24T03:37:42;29.58;;;14.75;;
52744;SDS011;38637;49.984;20.426;2023-02-24T03:40:10;33.08;;;16.83;;
52744;SDS011;38637;49.984;20.426;2023-02-24T03:42:51;23.75;;;13.85;;
52744;SDS011;38637;49.984;20.426;2023-02-24T03:45:22;20.77;;;12.68;;
52744;SDS011;38637;49.984;20.426;2023-02-24T03:47:48;17.27;;;11.27;;
52744;SDS011;38637;49.984;20.426;2023-02-24T03:50:16;20.48;;;12.65;;
52744;SDS011;38637;49.984;20.426;2023-02-24T03:58:16;19.85;;;11.27;;
52744;SDS011;38637;49.984;20.426;2023-02-24T04:03:31;19.40;;;12.77;;
52744;SDS011;38637;49.984;20.426;2023-02-24T04:06:06;18.02;;;12.95;;
52744;SDS011;38637;49.984;20.426;2023-02-24T04:08:49;11.70;;;8.27;;
52744;SDS011;38637;49.984;20.426;2023-02-24T04:13:50;12.50;;;8.07;;
52744;SDS011;38637;49.984;20.426;2023-02-24T04:16:24;12.82;;;7.80;;
52744;SDS011;38637;49.984;20.426;2023-02-24T04:18:57;9.35;;;7.28;;
52744;SDS011;38637;49.984;20.426;2023-02-24T04:21:27;13.38;;;9.95;;
52744;SDS011;38637;49.984;20.426;2023-02-24T04:23:56;10.45;;;6.60;;
52744;SDS011;38637;49.984;20.426;2023-02-24T04:26:23;7.75;;;5.60;;
52744;SDS011;38637;49.984;20.426;2023-02-24T04:28:51;6.32;;;5.22;;
52744;SDS011;38637;49.984;20.426;2023-02-24T04:33:45;11.00;;;9.10;;
52744;SDS011;38637;49.984;20.426;2023-02-24T04:36:14;16.70;;;13.25;;
52744;SDS011;38637;49.984;20.426;2023-02-24T04:38:41;15.88;;;13.93;;
52744;SDS011;38637;49.984;20.426;2023-02-24T04:41:06;15.73;;;14.20;;
52744;SDS011;38637;49.984;20.426;2023-02-24T04:43:32;13.77;;;10.50;;
52744;SDS011;38637;49.984;20.426;2023-02-24T04:45:57;13.23;;;9.47;;
52744;SDS011;38637;49.984;20.426;2023-02-24T04:48:23;14.60;;;10.27;;
52744;SDS011;38637;49.984;20.426;2023-02-24T04:50:48;12.83;;;9.67;;
52744;SDS011;38637;49.984;20.426;2023-02-24T04:53:19;15.27;;;9.57;;
52744;SDS011;38637;49.984;20.426;2023-02-24T04:55:51;13.60;;;9.48;;
52744;SDS011;38637;49.984;20.426;2023-02-24T04:58:20;16.07;;;10.07;;
52744;SDS011;38637;49.984;20.426;2023-02-24T05:00:48;14.77;;;10.05;;
52744;SDS011;38637;49.984;20.426;2023-02-24T05:03:22;11.20;;;9.07;;
52744;SDS011;38637;49.984;20.426;2023-02-24T05:05:57;11.77;;;8.93;;
52744;SDS011;38637;49.984;20.426;2023-02-24T05:08:27;13.80;;;9.43;;
52744;SDS011;38637;49.984;20.426;2023-02-24T05:10:54;10.88;;;8.07;;
52744;SDS011;38637;49.984;20.426;2023-02-24T05:13:26;13.52;;;9.25;;
52744;SDS011;38637;49.984;20.426;2023-02-24T05:15:53;12.15;;;9.43;;
52744;SDS011;38637;49.984;20.426;2023-02-24T05:18:20;30.80;;;20.85;;
52744;SDS011;38637;49.984;20.426;2023-02-24T05:20:48;61.45;;;37.25;;
52744;SDS011;38637;49.984;20.426;2023-02-24T05:23:35;28.00;;;16.73;;
52744;SDS011;38637;49.984;20.426;2023-02-24T05:26:08;16.17;;;11.43;;
52744;SDS011;38637;49.984;20.426;2023-02-24T05:28:36;11.43;;;10.32;;
52744;SDS011;38637;49.984;20.426;2023-02-24T05:31:03;7.95;;;7.13;;
52744;SDS011;38637;49.984;20.426;2023-02-24T05:33:36;9.93;;;6.53;;
52744;SDS011;38637;49.984;20.426;2023-02-24T05:36:04;6.75;;;5.07;;
52744;SDS011;38637;49.984;20.426;2023-02-24T05:38:32;7.90;;;6.15;;
52744;SDS011;38637;49.984;20.426;2023-02-24T05:41:08;7.53;;;6.50;;
52744;SDS011;38637;49.984;20.426;2023-02-24T05:43:41;6.88;;;5.78;;
52744;SDS011;38637;49.984;20.426;2023-02-24T05:46:16;9.18;;;5.78;;
52744;SDS011;38637;49.984;20.426;2023-02-24T05:48:43;5.30;;;4.28;;
52744;SDS011;38637;49.984;20.426;2023-02-24T05:51:09;4.35;;;3.75;;
52744;SDS011;38637;49.984;20.426;2023-02-24T05:53:36;7.97;;;4.95;;
52744;SDS011;38637;49.984;20.426;2023-02-24T05:56:05;5.82;;;5.22;;
52744;SDS011;38637;49.984;20.426;2023-02-24T05:58:31;8.23;;;7.40;;
52744;SDS011;38637;49.984;20.426;2023-02-24T06:00:56;12.03;;;10.83;;
52744;SDS011;38637;49.984;20.426;2023-02-24T06:03:29;12.23;;;11.05;;
52744;SDS011;38637;49.984;20.426;2023-02-24T06:05:55;11.45;;;10.35;;
52744;SDS011;38637;49.984;20.426;2023-02-24T06:08:23;13.23;;;11.95;;
52744;SDS011;38637;49.984;20.426;2023-02-24T06:10:49;13.57;;;12.27;;
52744;SDS011;38637;49.984;20.426;2023-02-24T06:13:15;14.80;;;13.30;;
52744;SDS011;38637;49.984;20.426;2023-02-24T06:15:41;25.37;;;16.87;;
52744;SDS011;38637;49.984;20.426;2023-02-24T06:18:14;31.70;;;18.35;;
52744;SDS011;38637;49.984;20.426;2023-02-24T06:20:41;28.98;;;20.83;;
52744;SDS011;38637;49.984;20.426;2023-02-24T06:23:08;19.67;;;11.88;;
52744;SDS011;38637;49.984;20.426;2023-02-24T06:25:33;18.13;;;6.57;;
52744;SDS011;38637;49.984;20.426;2023-02-24T06:27:59;7.57;;;4.87;;
52744;SDS011;38637;49.984;20.426;2023-02-24T06:30:25;6.32;;;4.68;;
52744;SDS011;38637;49.984;20.426;2023-02-24T06:32:51;7.17;;;4.50;;
52744;SDS011;38637;49.984;20.426;2023-02-24T06:35:18;21.08;;;6.13;;
52744;SDS011;38637;49.984;20.426;2023-02-24T06:37:45;19.52;;;5.47;;
52744;SDS011;38637;49.984;20.426;2023-02-24T06:40:10;11.27;;;4.70;;
52744;SDS011;38637;49.984;20.426;2023-02-24T06:42:46;5.35;;;4.10;;
52744;SDS011;38637;49.984;20.426;2023-02-24T06:45:13;4.57;;;3.80;;
52744;SDS011;38637;49.984;20.426;2023-02-24T06:47:39;6.10;;;4.90;;
52744;SDS011;38637;49.984;20.426;2023-02-24T06:50:07;4.75;;;4.30;;
52744;SDS011;38637;49.984;20.426;2023-02-24T06:52:33;5.25;;;4.68;;
52744;SDS011;38637;49.984;20.426;2023-02-24T06:55:00;8.10;;;5.35;;
52744;SDS011;38637;49.984;20.426;2023-02-24T06:57:28;8.95;;;5.50;;
52744;SDS011;38637;49.984;20.426;2023-02-24T06:59:56;12.70;;;6.88;;
52744;SDS011;38637;49.984;20.426;2023-02-24T07:02:22;12.03;;;7.07;;
52744;SDS011;38637;49.984;20.426;2023-02-24T07:04:50;13.07;;;8.32;;
52744;SDS011;38637;49.984;20.426;2023-02-24T07:07:19;22.45;;;15.57;;
52744;SDS011;38637;49.984;20.426;2023-02-24T07:09:44;27.70;;;16.30;;
52744;SDS011;38637;49.984;20.426;2023-02-24T07:12:09;30.17;;;14.30;;
52744;SDS011;38637;49.984;20.426;2023-02-24T07:14:36;35.42;;;14.65;;
52744;SDS011;38637;49.984;20.426;2023-02-24T07:17:02;15.30;;;8.90;;
52744;SDS011;38637;49.984;20.426;2023-02-24T07:19:28;13.17;;;8.97;;
52744;SDS011;38637;49.984;20.426;2023-02-24T07:21:57;20.20;;;8.93;;
52744;SDS011;38637;49.984;20.426;2023-02-24T07:24:28;14.68;;;10.40;;
52744;SDS011;38637;49.984;20.426;2023-02-24T07:27:04;18.42;;;12.90;;
52744;SDS011;38637;49.984;20.426;2023-02-24T07:29:32;22.95;;;14.80;;
52744;SDS011;38637;49.984;20.426;2023-02-24T07:31:59;19.20;;;11.27;;
52744;SDS011;38637;49.984;20.426;2023-02-24T07:34:29;12.90;;;7.85;;
52744;SDS011;38637;49.984;20.426;2023-02-24T07:36:55;14.75;;;8.00;;
52744;SDS011;38637;49.984;20.426;2023-02-24T07:39:21;16.40;;;8.90;;
52744;SDS011;38637;49.984;20.426;2023-02-24T07:41:47;23.00;;;10.95;;
52744;SDS011;38637;49.984;20.426;2023-02-24T07:44:14;23.88;;;13.93;;
52744;SDS011;38637;49.984;20.426;2023-02-24T07:46:41;22.98;;;14.50;;
52744;SDS011;38637;49.984;20.426;2023-02-24T07:49:08;17.70;;;11.00;;
52744;SDS011;38637;49.984;20.426;2023-02-24T07:51:37;15.73;;;9.23;;
52744;SDS011;38637;49.984;20.426;2023-02-24T07:54:02;10.20;;;8.40;;
52744;SDS011;38637;49.984;20.426;2023-02-24T07:56:29;21.55;;;11.48;;
52744;SDS011;38637;49.984;20.426;2023-02-24T07:59:04;28.95;;;15.85;;
52744;SDS011;38637;49.984;20.426;2023-02-24T08:01:33;32.60;;;17.42;;
52744;SDS011;38637;49.984;20.426;2023-02-24T08:04:03;36.10;;;15.98;;
52744;SDS011;38637;49.984;20.426;2023-02-24T08:06:32;37.63;;;17.05;;
52744;SDS011;38637;49.984;20.426;2023-02-24T08:09:03;33.83;;;16.25;;
52744;SDS011;38637;49.984;20.426;2023-02-24T08:11:52;32.67;;;15.80;;
52744;SDS011;38637;49.984;20.426;2023-02-24T08:16:54;26.08;;;15.13;;
52744;SDS011;38637;49.984;20.426;2023-02-24T08:19:26;31.50;;;16.05;;
52744;SDS011;38637;49.984;20.426;2023-02-24T08:22:09;32.20;;;15.50;;
52744;SDS011;38637;49.984;20.426;2023-02-24T08:27:19;27.45;;;14.40;;
52744;SDS011;38637;49.984;20.426;2023-02-24T08:29:50;29.80;;;14.52;;
52744;SDS011;38637;49.984;20.426;2023-02-24T08:32:33;32.08;;;17.80;;
52744;SDS011;38637;49.984;20.426;2023-02-24T08:35:12;13.38;;;9.52;;
52744;SDS011;38637;49.984;20.426;2023-02-24T08:37:43;18.58;;;10.40;;
52744;SDS011;38637;49.984;20.426;2023-02-24T08:40:18;12.65;;;7.55;;
52744;SDS011;38637;49.984;20.426;2023-02-24T08:43:06;11.48;;;7.90;;
52744;SDS011;38637;49.984;20.426;2023-02-24T08:45:50;8.90;;;7.75;;
52744;SDS011;38637;49.984;20.426;2023-02-24T08:48:24;12.40;;;8.45;;
52744;SDS011;38637;49.984;20.426;2023-02-24T08:54:09;38.10;;;11.88;;
52744;SDS011;38637;49.984;20.426;2023-02-24T08:56:39;19.52;;;11.25;;
52744;SDS011;38637;49.984;20.426;2023-02-24T08:59:13;13.13;;;9.77;;
52744;SDS011;38637;49.984;20.426;2023-02-24T09:02:01;10.93;;;9.05;;
52744;SDS011;38637;49.984;20.426;2023-02-24T09:04:51;11.80;;;8.38;;
52744;SDS011;38637;49.984;20.426;2023-02-24T09:07:21;10.00;;;8.60;;
52744;SDS011;38637;49.984;20.426;2023-02-24T09:09:52;12.32;;;8.50;;
52744;SDS011;38637;49.984;20.426;2023-02-24T09:12:20;13.93;;;9.43;;
52744;SDS011;38637;49.984;20.426;2023-02-24T09:14:49;14.98;;;9.63;;
52744;SDS011;38637;49.984;20.426;2023-02-24T09:17:21;10.00;;;7.75;;
52744;SDS011;38637;49.984;20.426;2023-02-24T09:20:09;15.23;;;7.80;;
52744;SDS011;38637;49.984;20.426;2023-02-24T09:22:51;12.10;;;7.90;;
52744;SDS011;38637;49.984;20.426;2023-02-24T09:25:21;8.95;;;6.93;;
52744;SDS011;38637;49.984;20.426;2023-02-24T09:27:53;9.80;;;8.10;;
52744;SDS011;38637;49.984;20.426;2023-02-24T09:30:32;11.23;;;7.57;;
52744;SDS011;38637;49.984;20.426;2023-02-24T09:33:05;11.18;;;8.38;;
52744;SDS011;38637;49.984;20.426;2023-02-24T09:36:27;11.23;;;8.35;;
52744;SDS011;38637;49.984;20.426;2023-02-24T09:38:53;9.65;;;8.18;;
52744;SDS011;38637;49.984;20.426;2023-02-24T09:44:42;7.68;;;6.88;;
52744;SDS011;38637;49.984;20.426;2023-02-24T09:47:16;9.32;;;7.07;;
52744;SDS011;38637;49.984;20.426;2023-02-24T09:52:54;10.15;;;7.00;;
52744;SDS011;38637;49.984;20.426;2023-02-24T09:55:40;13.65;;;7.55;;
52744;SDS011;38637;49.984;20.426;2023-02-24T10:09:43;9.32;;;7.32;;
52744;SDS011;38637;49.984;20.426;2023-02-24T10:14:56;7.47;;;6.28;;
52744;SDS011;38637;49.984;20.426;2023-02-24T10:17:47;5.75;;;5.15;;
52744;SDS011;38637;49.984;20.426;2023-02-24T10:20:20;7.78;;;5.93;;
52744;SDS011;38637;49.984;20.426;2023-02-24T10:25:46;9.77;;;5.93;;
52744;SDS011;38637;49.984;20.426;2023-02-24T10:31:10;6.25;;;5.65;;
52744;SDS011;38637;49.984;20.426;2023-02-24T10:33:59;6.97;;;5.80;;
52744;SDS011;38637;49.984;20.426;2023-02-24T10:36:31;13.23;;;6.40;;
52744;SDS011;38637;49.984;20.426;2023-02-24T10:39:21;8.20;;;6.13;;
52744;SDS011;38637;49.984;20.426;2023-02-24T10:44:25;7.10;;;5.68;;
52744;SDS011;38637;49.984;20.426;2023-02-24T10:47:08;8.20;;;5.80;;
52744;SDS011;38637;49.984;20.426;2023-02-24T10:49:40;6.68;;;5.95;;
52744;SDS011;38637;49.984;20.426;2023-02-24T10:52:40;6.30;;;5.63;;
52744;SDS011;38637;49.984;20.426;2023-02-24T10:58:02;6.32;;;5.43;;
52744;SDS011;38637;49.984;20.426;2023-02-24T11:00:41;6.82;;;6.13;;
52744;SDS011;38637;49.984;20.426;2023-02-24T11:03:24;6.55;;;5.18;;
52744;SDS011;38637;49.984;20.426;2023-02-24T11:06:02;6.97;;;5.07;;
52744;SDS011;38637;49.984;20.426;2023-02-24T11:08:29;5.43;;;4.93;;
52744;SDS011;38637;49.984;20.426;2023-02-24T11:11:22;7.40;;;4.88;;
52744;SDS011;38637;49.984;20.426;2023-02-24T11:13:54;5.95;;;5.05;;
52744;SDS011;38637;49.984;20.426;2023-02-24T11:16:46;10.13;;;6.00;;
52744;SDS011;38637;49.984;20.426;2023-02-24T11:19:43;6.57;;;5.78;;
52744;SDS011;38637;49.984;20.426;2023-02-24T11:22:12;11.68;;;5.40;;
52744;SDS011;38637;49.984;20.426;2023-02-24T11:24:40;6.03;;;5.43;;
52744;SDS011;38637;49.984;20.426;2023-02-24T11:27:09;5.65;;;5.05;;
52744;SDS011;38637;49.984;20.426;2023-02-24T11:32:19;6.10;;;5.35;;
52744;SDS011;38637;49.984;20.426;2023-02-24T11:37:40;6.45;;;5.55;;
52744;SDS011;38637;49.984;20.426;2023-02-24T11:40:19;5.28;;;4.55;;
52744;SDS011;38637;49.984;20.426;2023-02-24T11:42:52;6.53;;;4.80;;
52744;SDS011;38637;49.984;20.426;2023-02-24T11:45:31;4.57;;;4.18;;
52744;SDS011;38637;49.984;20.426;2023-02-24T11:48:03;5.22;;;4.72;;
52744;SDS011;38637;49.984;20.426;2023-02-24T11:50:49;6.45;;;4.88;;
52744;SDS011;38637;49.984;20.426;2023-02-24T11:53:35;6.18;;;4.80;;
52744;SDS011;38637;49.984;20.426;2023-02-24T12:01:51;6.13;;;4.85;;
52744;SDS011;38637;49.984;20.426;2023-02-24T12:04:31;5.90;;;4.95;;
52744;SDS011;38637;49.984;20.426;2023-02-24T12:07:30;4.97;;;4.47;;
52744;SDS011;38637;49.984;20.426;2023-02-24T12:10:04;5.45;;;4.45;;
52744;SDS011;38637;49.984;20.426;2023-02-24T12:12:43;6.60;;;5.10;;
52744;SDS011;38637;49.984;20.426;2023-02-24T12:15:21;7.60;;;5.00;;
52744;SDS011;38637;49.984;20.426;2023-02-24T12:18:05;8.30;;;5.07;;
52744;SDS011;38637;49.984;20.426;2023-02-24T12:20:40;5.20;;;4.70;;
52744;SDS011;38637;49.984;20.426;2023-02-24T12:23:14;8.52;;;5.18;;
52744;SDS011;38637;49.984;20.426;2023-02-24T12:25:48;9.55;;;5.07;;
52744;SDS011;38637;49.984;20.426;2023-02-24T12:34:17;7.45;;;5.45;;
52744;SDS011;38637;49.984;20.426;2023-02-24T12:39:54;5.53;;;4.55;;
52744;SDS011;38637;49.984;20.426;2023-02-24T12:42:44;5.32;;;4.82;;
52744;SDS011;38637;49.984;20.426;2023-02-24T12:45:34;5.30;;;4.65;;
52744;SDS011;38637;49.984;20.426;2023-02-24T12:48:15;5.45;;;4.75;;
52744;SDS011;38637;49.984;20.426;2023-02-24T12:51:02;6.53;;;5.20;;
52744;SDS011;38637;49.984;20.426;2023-02-24T12:53:52;6.75;;;4.78;;
52744;SDS011;38637;49.984;20.426;2023-02-24T12:56:43;6.47;;;5.05;;
52744;SDS011;38637;49.984;20.426;2023-02-24T12:59:18;6.15;;;5.05;;
52744;SDS011;38637;49.984;20.426;2023-02-24T13:01:59;7.85;;;5.15;;
52744;SDS011;38637;49.984;20.426;2023-02-24T13:07:10;6.93;;;5.32;;
52744;SDS011;38637;49.984;20.426;2023-02-24T13:10:40;6.55;;;5.45;;
52744;SDS011;38637;49.984;20.426;2023-02-24T13:13:09;6.40;;;5.20;;
52744;SDS011;38637;49.984;20.426;2023-02-24T13:15:52;8.00;;;5.85;;
52744;SDS011;38637;49.984;20.426;2023-02-24T13:18:23;7.43;;;5.32;;
52744;SDS011;38637;49.984;20.426;2023-02-24T13:20:59;8.23;;;6.63;;
52744;SDS011;38637;49.984;20.426;2023-02-24T13:23:53;7.63;;;5.28;;
52744;SDS011;38637;49.984;20.426;2023-02-24T13:26:25;6.18;;;5.40;;
52744;SDS011;38637;49.984;20.426;2023-02-24T13:29:00;8.52;;;5.45;;
52744;SDS011;38637;49.984;20.426;2023-02-24T13:31:26;7.25;;;5.85;;
52744;SDS011;38637;49.984;20.426;2023-02-24T13:34:12;8.55;;;5.90;;
52744;SDS011;38637;49.984;20.426;2023-02-24T13:36:45;7.38;;;4.93;;
52744;SDS011;38637;49.984;20.426;2023-02-24T13:39:21;6.50;;;5.00;;
52744;SDS011;38637;49.984;20.426;2023-02-24T13:42:20;6.75;;;4.32;;
52744;SDS011;38637;49.984;20.426;2023-02-24T13:47:39;5.38;;;4.25;;
52744;SDS011;38637;49.984;20.426;2023-02-24T13:50:18;8.63;;;7.00;;
52744;SDS011;38637;49.984;20.426;2023-02-24T14:01:22;7.85;;;6.38;;
52744;SDS011;38637;49.984;20.426;2023-02-24T14:04:03;8.30;;;5.97;;
52744;SDS011;38637;49.984;20.426;2023-02-24T14:06:29;7.75;;;6.80;;
52744;SDS011;38637;49.984;20.426;2023-02-24T14:08:55;12.97;;;6.37;;
52744;SDS011;38637;49.984;20.426;2023-02-24T14:11:24;13.55;;;7.60;;
52744;SDS011;38637;49.984;20.426;2023-02-24T14:13:53;10.13;;;7.68;;
52744;SDS011;38637;49.984;20.426;2023-02-24T14:16:22;11.65;;;7.97;;
52744;SDS011;38637;49.984;20.426;2023-02-24T14:18:54;12.23;;;7.70;;
52744;SDS011;38637;49.984;20.426;2023-02-24T14:21:25;7.90;;;6.75;;
52744;SDS011;38637;49.984;20.426;2023-02-24T14:23:58;13.65;;;8.57;;
52744;SDS011;38637;49.984;20.426;2023-02-24T14:26:26;19.90;;;11.88;;
52744;SDS011;38637;49.984;20.426;2023-02-24T14:28:56;10.18;;;7.20;;
52744;SDS011;38637;49.984;20.426;2023-02-24T14:31:25;9.80;;;7.05;;
52744;SDS011;38637;49.984;20.426;2023-02-24T14:33:58;8.95;;;6.88;;
52744;SDS011;38637;49.984;20.426;2023-02-24T14:36:36;9.95;;;7.30;;
52744;SDS011;38637;49.984;20.426;2023-02-24T14:39:07;10.00;;;7.45;;
52744;SDS011;38637;49.984;20.426;2023-02-24T14:42:08;20.55;;;11.95;;
52744;SDS011;38637;49.984;20.426;2023-02-24T14:44:49;29.90;;;15.02;;
52744;SDS011;38637;49.984;20.426;2023-02-24T14:47:17;20.23;;;11.35;;
52744;SDS011;38637;49.984;20.426;2023-02-24T14:52:36;27.52;;;13.55;;
52744;SDS011;38637;49.984;20.426;2023-02-24T14:55:52;15.00;;;7.65;;
52744;SDS011;38637;49.984;20.426;2023-02-24T14:58:22;16.70;;;9.35;;
52744;SDS011;38637;49.984;20.426;2023-02-24T15:00:53;32.08;;;14.48;;
52744;SDS011;38637;49.984;20.426;2023-02-24T15:03:28;25.38;;;14.85;;
52744;SDS011;38637;49.984;20.426;2023-02-24T15:05:58;26.35;;;13.38;;
52744;SDS011;38637;49.984;20.426;2023-02-24T15:08:30;29.58;;;15.23;;
52744;SDS011;38637;49.984;20.426;2023-02-24T15:11:10;20.55;;;11.32;;
52744;SDS011;38637;49.984;20.426;2023-02-24T15:13:52;21.35;;;11.88;;
52744;SDS011;38637;49.984;20.426;2023-02-24T15:16:21;22.15;;;13.38;;
52744;SDS011;38637;49.984;20.426;2023-02-24T15:18:52;31.55;;;19.55;;
52744;SDS011;38637;49.984;20.426;2023-02-24T15:21:29;31.90;;;15.45;;
52744;SDS011;38637;49.984;20.426;2023-02-24T15:23:58;13.57;;;8.43;;
52744;SDS011;38637;49.984;20.426;2023-02-24T15:26:32;8.60;;;6.65;;
52744;SDS011;38637;49.984;20.426;2023-02-24T15:29:00;10.82;;;6.22;;
52744;SDS011;38637;49.984;20.426;2023-02-24T15:31:26;17.48;;;7.90;;
52744;SDS011;38637;49.984;20.426;2023-02-24T15:33:54;13.23;;;8.70;;
52744;SDS011;38637;49.984;20.426;2023-02-24T15:36:24;22.65;;;11.55;;
52744;SDS011;38637;49.984;20.426;2023-02-24T15:38:59;9.68;;;7.10;;
52744;SDS011;38637;49.984;20.426;2023-02-24T15:41:37;22.98;;;10.40;;
52744;SDS011;38637;49.984;20.426;2023-02-24T15:44:05;14.13;;;8.23;;
52744;SDS011;38637;49.984;20.426;2023-02-24T15:46:31;9.35;;;7.15;;
52744;SDS011;38637;49.984;20.426;2023-02-24T15:48:58;10.77;;;6.68;;
52744;SDS011;38637;49.984;20.426;2023-02-24T15:51:31;10.98;;;6.53;;
52744;SDS011;38637;49.984;20.426;2023-02-24T15:54:03;9.68;;;6.68;;
52744;SDS011;38637;49.984;20.426;2023-02-24T15:56:32;12.40;;;8.35;;
52744;SDS011;38637;49.984;20.426;2023-02-24T15:58:59;14.07;;;9.68;;
52744;SDS011;38637;49.984;20.426;2023-02-24T16:03:51;14.27;;;11.18;;
52744;SDS011;38637;49.984;20.426;2023-02-24T16:06:17;16.77;;;9.67;;
52744;SDS011;38637;49.984;20.426;2023-02-24T16:08:45;11.15;;;7.72;;
52744;SDS011;38637;49.984;20.426;2023-02-24T16:11:12;12.90;;;6.65;;
52744;SDS011;38637;49.984;20.426;2023-02-24T16:13:49;12.25;;;7.95;;
52744;SDS011;38637;49.984;20.426;2023-02-24T16:16:16;16.73;;;8.55;;
52744;SDS011;38637;49.984;20.426;2023-02-24T16:21:08;10.35;;;7.38;;
52744;SDS011;38637;49.984;20.426;2023-02-24T16:23:34;18.83;;;8.50;;
52744;SDS011;38637;49.984;20.426;2023-02-24T16:26:05;7.10;;;5.65;;
52744;SDS011;38637;49.984;20.426;2023-02-24T16:28:33;7.63;;;5.13;;
52744;SDS011;38637;49.984;20.426;2023-02-24T16:30:59;8.53;;;4.77;;
52744;SDS011;38637;49.984;20.426;2023-02-24T16:33:26;4.22;;;3.65;;
52744;SDS011;38637;49.984;20.426;2023-02-24T16:35:52;6.03;;;4.23;;
52744;SDS011;38637;49.984;20.426;2023-02-24T16:38:17;6.30;;;5.03;;
52744;SDS011;38637;49.984;20.426;2023-02-24T16:40:45;6.20;;;4.97;;
52744;SDS011;38637;49.984;20.426;2023-02-24T16:43:13;8.48;;;5.00;;
52744;SDS011;38637;49.984;20.426;2023-02-24T16:45:39;7.93;;;5.93;;
52744;SDS011;38637;49.984;20.426;2023-02-24T16:48:06;7.38;;;5.47;;
52744;SDS011;38637;49.984;20.426;2023-02-24T16:50:38;6.97;;;5.53;;
52744;SDS011;38637;49.984;20.426;2023-02-24T16:53:06;9.38;;;6.82;;
52744;SDS011;38637;49.984;20.426;2023-02-24T16:55:32;10.48;;;7.43;;
52744;SDS011;38637;49.984;20.426;2023-02-24T16:57:58;9.63;;;7.05;;